• Join FlightAware (Why Join?)
  • Login
  • US Flag 
12:55AM EST


 

Airport Tracker/Info


-or-


 

Live Flight TrackerFlight Track Log ✈ SIA38 ✈ 05-May-2013 ✈ WSSS / SIN - KLAX

Flight Track Log - Related Links

Times and Time Zones

All times are in EDT time to prevent confusion due to time zone crossing. See the SIA38 flight status page for this flight to view local times or setup timezone preferences in your user account.

Time Position Orientation Groundspeed Altitude Reporting Facility
EDT Latitude Longitude Course Direction KTS MPH feet Rate Location/Type
04:43AM 1.3810 104.0070 38° Northeast 184 212 1,100  Level FlightAware
04:43AM 1.3920 104.0120 24° Northeast 184 212 1,500 1,560 Climbing FlightAware
04:44AM 1.4150 104.0220 23° Northeast 180 207 2,300 1,320 Climbing FlightAware
04:44AM 1.4320 104.0270 16° North 188 216 2,600 1,080 Climbing FlightAware
04:45AM 1.4630 104.0220 351° North 195 224 3,300 1,200 Climbing FlightAware
04:45AM 1.4900 104.0170 350° North 196 226 3,900 1,080 Climbing FlightAware
04:46AM 1.5120 104.0140 352° North 198 228 4,300 600 Climbing FlightAware
04:46AM 1.5420 104.0100 352° North 229 264 4,500 300 Climbing FlightAware
04:47AM 1.5760 104.0040 350° North 264 304 4,600 720 Climbing FlightAware
04:47AM 1.6100 103.9990 352° North 282 325 5,200 1,620 Climbing FlightAware
04:48AM 1.6490 103.9920 350° North 286 329 6,100 1,800 Climbing FlightAware
04:48AM 1.6810 103.9870 351° North 290 334 6,900 1,800 Climbing FlightAware
04:49AM 1.7200 103.9800 350° North 294 338 7,800 1,680 Climbing FlightAware
04:49AM 1.7610 103.9740 352° North 301 346 8,600 1,740 Climbing FlightAware
04:50AM 1.7970 103.9680 351° North 304 350 9,400 1,800 Climbing FlightAware
04:50AM 1.8170 103.9650 351° North 304 350 9,800 1,260 Climbing FlightAware
04:50AM 1.8740 103.9550 350° North 318 366 10,600 900 Climbing FlightAware
04:51AM 1.9450 103.9440 351° North 348 400 11,100 600 Climbing FlightAware
04:52AM 1.9880 103.9370 351° North 365 420 11,400 720 Climbing FlightAware
04:53AM 2.0830 103.9210 350° North 397 457 12,100 960 Climbing FlightAware
04:53AM 2.1620 103.9080 351° North 406 467 13,000 720 Climbing FlightAware
04:54AM 2.2310 103.8960 350° North 407 468 13,200 120 Climbing FlightAware
04:55AM 2.2940 103.8850 350° North 407 468 13,200 2,160 Level FlightAware
04:55AM 2.3270 103.8870 North 414 476 15,000 2,760 Climbing FlightAware
04:56AM 2.4050 103.9450 37° Northeast 404 465 16,000 900 Climbing FlightAware
04:56AM 2.4230 104.0040 73° East 402 463 16,300 1,200 Climbing FlightAware
04:57AM 2.4400 104.1010 80° East 411 473 17,700 1,380 Climbing FlightAware
04:58AM 2.4550 104.1780 79° East 418 481 18,400 1,020 Climbing FlightAware
04:58AM 2.4700 104.2600 80° East 420 483 19,200 960 Climbing FlightAware
04:59AM 2.4840 104.3380 80° East 426 490 19,800 960 Climbing FlightAware
05:00AM 2.4980 104.4150 80° East 430 495 20,500 960 Climbing FlightAware
05:00AM 2.5130 104.4950 79° East 435 501 21,100 900 Climbing FlightAware
05:01AM 2.5350 104.5830 76° East 437 503 21,800 840 Climbing FlightAware
05:02AM 2.5570 104.6650 75° East 444 511 22,300 720 Climbing FlightAware
05:03AM 2.5810 104.7520 75° East 448 516 22,900 840 Climbing FlightAware
05:03AM 2.6020 104.8290 75° East 452 520 23,500 780 Climbing FlightAware
05:04AM 2.6250 104.9130 75° East 458 527 24,000 720 Climbing FlightAware
05:05AM 2.6510 105.0080 75° East 464 534 24,600 840 Climbing FlightAware
05:05AM 2.6720 105.0880 75° East 469 540 25,200 900 Climbing FlightAware
05:06AM 2.6990 105.1730 72° East 470 541 25,800 840 Climbing FlightAware
05:07AM 2.7330 105.2650 70° East 476 548 26,400 840 Climbing FlightAware
05:07AM 2.7630 105.3490 70° East 480 552 27,000 540 Climbing FlightAware
05:08AM 2.7860 105.4130 70° East 487 560 27,100 660 Climbing FlightAware
05:09AM 2.8230 105.5150 70° East 487 560 27,900 480 Climbing FlightAware
05:10AM 2.8540 105.5980 69° East 487 560 27,900  Level FlightAware
05:10AM 2.8800 105.6700 70° East 487 560 27,900  Level FlightAware
05:11AM 2.9060 105.7420 70° East 487 560 27,900  Level FlightAware
05:12AM 2.9390 105.8320 70° East 487 560 27,900  Level FlightAware
05:12AM 2.9650 105.9050 70° East 487 560 27,900  Level FlightAware
05:15AM 3.1841 106.1212 45° Northeast  Level Estimated
05:16AM 3.2868 106.2226 45° Northeast  Level Estimated
05:17AM 3.3895 106.3240 45° Northeast  Level Estimated
05:18AM 3.4922 106.4254 45° Northeast  Level Estimated
05:19AM 3.5948 106.5268 45° Northeast  Level Estimated
05:20AM 3.6975 106.6283 45° Northeast  Level Estimated
05:21AM 3.8001 106.7298 45° Northeast  Level Estimated
05:22AM 3.9028 106.8313 45° Northeast  Level Estimated
05:23AM 4.0054 106.9328 45° Northeast  Level Estimated
05:24AM 4.1080 107.0344 45° Northeast  Level Estimated
05:25AM 4.2106 107.1360 45° Northeast  Level Estimated
05:26AM 4.3131 107.2376 45° Northeast  Level Estimated
05:27AM 4.4157 107.3392 45° Northeast  Level Estimated
05:28AM 4.5183 107.4409 45° Northeast  Level Estimated
05:29AM 4.6208 107.5426 45° Northeast  Level Estimated
05:30AM 4.7233 107.6443 45° Northeast  Level Estimated
05:31AM 4.8258 107.7461 45° Northeast  Level Estimated
05:32AM 4.9283 107.8479 45° Northeast  Level Estimated
05:33AM 5.0308 107.9497 45° Northeast  Level Estimated
05:34AM 5.1333 108.0516 45° Northeast  Level Estimated
05:35AM 5.2357 108.1534 45° Northeast  Level Estimated
05:36AM 5.3381 108.2554 45° Northeast  Level Estimated
05:37AM 5.4405 108.3573 45° Northeast  Level Estimated
05:38AM 5.5429 108.4593 45° Northeast  Level Estimated
05:39AM 5.6453 108.5613 45° Northeast  Level Estimated
05:40AM 5.7477 108.6634 45° Northeast  Level Estimated
05:41AM 5.8500 108.7655 45° Northeast  Level Estimated
05:42AM 5.9523 108.8676 45° Northeast  Level Estimated
05:43AM 6.0546 108.9698 45° Northeast  Level Estimated
05:44AM 6.1569 109.0720 45° Northeast  Level Estimated
05:45AM 6.2592 109.1742 45° Northeast  Level Estimated
05:46AM 6.3614 109.2765 45° Northeast  Level Estimated
05:47AM 6.4637 109.3789 45° Northeast  Level Estimated
05:48AM 6.5659 109.4812 45° Northeast  Level Estimated
05:49AM 6.6680 109.5836 45° Northeast  Level Estimated
05:50AM 6.7702 109.6861 45° Northeast  Level Estimated
05:51AM 6.8723 109.7886 45° Northeast  Level Estimated
05:52AM 6.9745 109.8911 45° Northeast  Level Estimated
05:53AM 7.0766 109.9937 45° Northeast  Level Estimated
05:54AM 7.1786 110.0964 45° Northeast  Level Estimated
05:55AM 7.2807 110.1990 45° Northeast  Level Estimated
05:56AM 7.3827 110.3018 45° Northeast  Level Estimated
05:57AM 7.4847 110.4045 45° Northeast  Level Estimated
05:58AM 7.5867 110.5074 45° Northeast  Level Estimated
05:59AM 7.6887 110.6102 45° Northeast  Level Estimated
06:00AM 7.7906 110.7132 45° Northeast  Level Estimated
06:01AM 7.8925 110.8161 45° Northeast  Level Estimated
06:02AM 7.9944 110.9191 45° Northeast  Level Estimated
06:03AM 8.0962 111.0222 45° Northeast  Level Estimated
06:04AM 8.1981 111.1253 45° Northeast  Level Estimated
06:05AM 8.2999 111.2285 45° Northeast  Level Estimated
06:06AM 8.4017 111.3317 45° Northeast  Level Estimated
06:07AM 8.5034 111.4350 45° Northeast  Level Estimated
06:08AM 8.6052 111.5384 45° Northeast  Level Estimated
06:09AM 8.7069 111.6418 45° Northeast  Level Estimated
06:10AM 8.8085 111.7452 45° Northeast  Level Estimated
06:11AM 8.9102 111.8487 45° Northeast  Level Estimated
06:12AM 9.0118 111.9523 45° Northeast  Level Estimated
06:13AM 9.1133 112.0559 45° Northeast  Level Estimated
06:14AM 9.2149 112.1596 45° Northeast  Level Estimated
06:15AM 9.3164 112.2633 45° Northeast  Level Estimated
06:16AM 9.4179 112.3671 45° Northeast  Level Estimated
06:17AM 9.5194 112.4710 45° Northeast  Level Estimated
06:18AM 9.6208 112.5749 45° Northeast  Level Estimated
06:19AM 9.7222 112.6789 45° Northeast  Level Estimated
06:20AM 9.8236 112.7830 45° Northeast  Level Estimated
06:21AM 9.9249 112.8871 45° Northeast  Level Estimated
06:22AM 10.0262 112.9912 45° Northeast  Level Estimated
06:23AM 10.1275 113.0955 45° Northeast  Level Estimated
06:24AM 10.2287 113.1998 45° Northeast  Level Estimated
06:25AM 10.3299 113.3042 45° Northeast  Level Estimated
06:26AM 10.4311 113.4086 45° Northeast  Level Estimated
06:27AM 10.5323 113.5131 45° Northeast  Level Estimated
06:28AM 10.6334 113.6177 45° Northeast  Level Estimated
06:29AM 10.7344 113.7224 45° Northeast  Level Estimated
06:30AM 10.8355 113.8271 46° Northeast  Level Estimated
06:31AM 10.9365 113.9319 46° Northeast  Level Estimated
06:32AM 11.0374 114.0367 46° Northeast  Level Estimated
06:33AM 11.1384 114.1417 46° Northeast  Level Estimated
06:34AM 11.2393 114.2467 46° Northeast  Level Estimated
06:35AM 11.3401 114.3518 46° Northeast  Level Estimated
06:36AM 11.4409 114.4569 46° Northeast  Level Estimated
06:37AM 11.5417 114.5621 46° Northeast  Level Estimated
06:38AM 11.6425 114.6674 46° Northeast  Level Estimated
06:39AM 11.7432 114.7728 46° Northeast  Level Estimated
06:40AM 11.8438 114.8783 46° Northeast  Level Estimated
06:41AM 11.9445 114.9838 46° Northeast  Level Estimated
06:42AM 12.0451 115.0894 46° Northeast  Level Estimated
06:43AM 12.1456 115.1951 46° Northeast  Level Estimated
06:44AM 12.2461 115.3009 46° Northeast  Level Estimated
06:45AM 12.3466 115.4067 46° Northeast  Level Estimated
06:46AM 12.4470 115.5127 46° Northeast  Level Estimated
06:47AM 12.5474 115.6187 46° Northeast  Level Estimated
06:48AM 12.6477 115.7248 46° Northeast  Level Estimated
06:49AM 12.7480 115.8310 46° Northeast  Level Estimated
06:50AM 12.8483 115.9372 46° Northeast  Level Estimated
06:51AM 12.9485 116.0436 46° Northeast  Level Estimated
06:52AM 13.0487 116.1500 46° Northeast  Level Estimated
06:53AM 13.1488 116.2566 46° Northeast  Level Estimated
06:54AM 13.2489 116.3632 46° Northeast  Level Estimated
06:55AM 13.3490 116.4699 46° Northeast  Level Estimated
06:56AM 13.4490 116.5767 46° Northeast  Level Estimated
06:57AM 13.5489 116.6835 46° Northeast  Level Estimated
06:58AM 13.6488 116.7905 46° Northeast  Level Estimated
06:59AM 13.7487 116.8976 46° Northeast  Level Estimated
07:00AM 13.8485 117.0047 46° Northeast  Level Estimated
07:01AM 13.9483 117.1120 46° Northeast  Level Estimated
07:02AM 14.0480 117.2193 46° Northeast  Level Estimated
07:03AM 14.1477 117.3267 46° Northeast  Level Estimated
07:04AM 14.2473 117.4342 46° Northeast  Level Estimated
07:05AM 14.3469 117.5419 46° Northeast  Level Estimated
07:06AM 14.4464 117.6496 46° Northeast  Level Estimated
07:07AM 14.5459 117.7574 46° Northeast  Level Estimated
07:08AM 14.6453 117.8653 46° Northeast  Level Estimated
07:09AM 14.7447 117.9733 46° Northeast  Level Estimated
07:10AM 14.8440 118.0814 46° Northeast  Level Estimated
07:11AM 14.9433 118.1896 46° Northeast  Level Estimated
07:12AM 15.0425 118.2979 46° Northeast  Level Estimated
07:13AM 15.1417 118.4063 47° Northeast  Level Estimated
07:14AM 15.2408 118.5148 47° Northeast  Level Estimated
07:15AM 15.3399 118.6234 47° Northeast  Level Estimated
07:16AM 15.4389 118.7321 47° Northeast  Level Estimated
07:17AM 15.5379 118.8409 47° Northeast  Level Estimated
07:18AM 15.6368 118.9498 47° Northeast  Level Estimated
07:19AM 15.7357 119.0589 47° Northeast  Level Estimated
07:20AM 15.8345 119.1680 47° Northeast  Level Estimated
07:21AM 15.9332 119.2772 47° Northeast  Level Estimated
07:22AM 16.0319 119.3866 47° Northeast  Level Estimated
07:23AM 16.1306 119.4960 47° Northeast  Level Estimated
07:24AM 16.2292 119.6056 47° Northeast  Level Estimated
07:25AM 16.3277 119.7152 47° Northeast  Level Estimated
07:26AM 16.4262 119.8250 47° Northeast  Level Estimated
07:27AM 16.5246 119.9349 47° Northeast  Level Estimated
07:28AM 16.6229 120.0449 47° Northeast  Level Estimated
07:29AM 16.7213 120.1550 47° Northeast  Level Estimated
07:30AM 16.8195 120.2653 47° Northeast  Level Estimated
07:31AM 16.9177 120.3756 47° Northeast  Level Estimated
07:32AM 17.0158 120.4861 47° Northeast  Level Estimated
07:33AM 17.1139 120.5966 47° Northeast  Level Estimated
07:34AM 17.2119 120.7073 47° Northeast  Level Estimated
07:35AM 17.3098 120.8182 47° Northeast  Level Estimated
07:36AM 17.4077 120.9291 47° Northeast  Level Estimated
07:37AM 17.5055 121.0401 47° Northeast  Level Estimated
07:38AM 17.6033 121.1513 47° Northeast  Level Estimated
07:39AM 17.7010 121.2626 47° Northeast  Level Estimated
07:40AM 17.7986 121.3740 47° Northeast  Level Estimated
07:41AM 17.8962 121.4855 47° Northeast  Level Estimated
07:42AM 17.9937 121.5972 47° Northeast  Level Estimated
07:43AM 18.0911 121.7090 47° Northeast  Level Estimated
07:44AM 18.1885 121.8209 48° Northeast  Level Estimated
07:45AM 18.2858 121.9329 48° Northeast  Level Estimated
07:46AM 18.3831 122.0450 48° Northeast  Level Estimated
07:47AM 18.4803 122.1573 48° Northeast  Level Estimated
07:48AM 18.5774 122.2697 48° Northeast  Level Estimated
07:49AM 18.6744 122.3822 48° Northeast  Level Estimated
07:49AM 19.1400 120.3040 48° Northeast 496 571 35,000  Level FlightAware
07:50AM 18.7714 122.4949 48° Northeast  Level Estimated
07:50AM 19.1950 120.3680 48° Northeast 497 572 35,000  Level FlightAware
07:51AM 19.2910 120.4810 48° Northeast 500 575 35,000  Level FlightAware
07:52AM 19.3430 120.5430 48° Northeast 500 575 35,000  Level FlightAware
07:52AM 19.3960 120.6050 48° Northeast 500 575 35,000  Level FlightAware
07:53AM 19.4930 120.7220 49° Northeast 503 579 35,000  Level FlightAware
07:54AM 19.5460 120.7850 48° Northeast 503 579 35,000  Level FlightAware
07:55AM 19.6400 120.8980 49° Northeast 501 577 35,000  Level FlightAware
07:55AM 19.6890 120.9560 48° Northeast 501 577 35,000  Level FlightAware
07:56AM 19.7890 121.0770 49° Northeast 501 577 35,000  Level FlightAware
07:57AM 19.8500 121.1490 48° Northeast 502 578 35,000  Level FlightAware
07:58AM 19.9200 121.2340 49° Northeast 500 575 35,000  Level FlightAware
07:58AM 19.9920 121.3210 49° Northeast 503 579 35,000  Level FlightAware
07:59AM 20.0520 121.3940 49° Northeast 502 578 35,000  Level FlightAware
08:00AM 20.1540 121.5170 49° Northeast 501 577 35,000  Level FlightAware
08:01AM 20.2160 121.5920 49° Northeast 503 579 35,000  Level FlightAware
08:02AM 20.2770 121.6660 49° Northeast 504 580 35,000  Level FlightAware
08:02AM 20.3380 121.7410 49° Northeast 505 581 35,000  Level FlightAware
08:03AM 20.4140 121.8330 49° Northeast 504 580 35,000  Level FlightAware
08:04AM 20.4690 121.9000 49° Northeast 503 579 35,000  Level FlightAware
08:04AM 20.5410 121.9870 49° Northeast 501 577 35,000  Level FlightAware
08:05AM 20.6010 122.0610 49° Northeast 503 579 35,000  Level FlightAware
08:06AM 20.6690 122.1430 48° Northeast 504 580 35,000  Level FlightAware
08:06AM 20.7230 122.2100 49° Northeast 504 580 35,000  Level FlightAware
08:07AM 20.7920 122.2950 49° Northeast 506 582 35,000  Level FlightAware
08:08AM 20.8720 122.3920 49° Northeast 508 585 35,000  Level FlightAware
08:09AM 20.9200 122.4520 49° Northeast 509 586 35,000  Level FlightAware
08:09AM 21.0100 122.5530 46° Northeast 509 586 35,000  Level FlightAware
08:10AM 21.0660 122.6130 45° Northeast 509 586 35,000  Level FlightAware
08:11AM 21.1370 122.6890 45° Northeast 509 586 35,000  Level FlightAware
08:11AM 21.1790 122.7350 46° Northeast 509 586 35,000  Level FlightAware
08:12AM 21.2360 122.7950 44° Northeast 509 586 35,000  Level FlightAware
08:13AM 21.2780 122.8410 46° Northeast 509 586 35,000  Level FlightAware
08:13AM 21.3350 122.9020 45° Northeast 509 586 35,000  Level FlightAware
08:14AM 21.3780 122.9470 44° Northeast 509 586 35,000  Level FlightAware
08:15AM 21.4480 123.0230 45° Northeast 509 586 35,000  Level FlightAware
08:15AM 21.5050 123.0840 45° Northeast 509 586 35,000  Level FlightAware
08:16AM 21.5620 123.1450 45° Northeast 509 586 35,000  Level FlightAware
08:17AM 21.6180 123.2060 45° Northeast 509 586 35,000  Level FlightAware
08:17AM 21.6750 123.2670 45° Northeast 509 586 35,000  Level FlightAware
08:18AM 21.7460 123.3430 45° Northeast 509 586 35,000  Level FlightAware
08:19AM 21.8020 123.4040 45° Northeast 509 586 35,000  Level FlightAware
08:21AM 21.9683 123.6016 48° Northeast  Level Estimated
08:22AM 22.0650 123.7169 48° Northeast  Level Estimated
08:23AM 22.1617 123.8324 48° Northeast  Level Estimated
08:24AM 22.2583 123.9480 48° Northeast  Level Estimated
08:25AM 22.3548 124.0638 48° Northeast  Level Estimated
08:26AM 22.4512 124.1798 48° Northeast  Level Estimated
08:27AM 22.5476 124.2959 48° Northeast  Level Estimated
08:28AM 22.6438 124.4122 48° Northeast  Level Estimated
08:29AM 22.7400 124.5286 48° Northeast  Level Estimated
08:30AM 22.8361 124.6452 48° Northeast  Level Estimated
08:31AM 22.9321 124.7620 48° Northeast  Level Estimated
08:32AM 23.0280 124.8790 48° Northeast  Level Estimated
08:33AM 23.1239 124.9960 48° Northeast  Level Estimated
08:34AM 23.2196 125.1133 48° Northeast  Level Estimated
08:35AM 23.3153 125.2308 48° Northeast  Level Estimated
08:36AM 23.4109 125.3484 48° Northeast  Level Estimated
08:37AM 23.5063 125.4661 49° Northeast  Level Estimated
08:38AM 23.6017 125.5841 49° Northeast  Level Estimated
08:39AM 23.6971 125.7022 49° Northeast  Level Estimated
08:40AM 23.7923 125.8205 49° Northeast  Level Estimated
08:41AM 23.8874 125.9390 49° Northeast  Level Estimated
08:42AM 23.9824 126.0576 49° Northeast  Level Estimated
08:43AM 24.0774 126.1764 49° Northeast  Level Estimated
08:44AM 24.1722 126.2954 49° Northeast  Level Estimated
08:45AM 24.2670 126.4146 49° Northeast  Level Estimated
08:46AM 24.3617 126.5339 49° Northeast  Level Estimated
08:47AM 24.4562 126.6535 49° Northeast  Level Estimated
08:48AM 24.5507 126.7732 49° Northeast  Level Estimated
08:49AM 24.6451 126.8930 49° Northeast  Level Estimated
08:50AM 24.7394 127.0131 49° Northeast  Level Estimated
08:51AM 24.8336 127.1334 49° Northeast  Level Estimated
08:52AM 24.9277 127.2538 49° Northeast  Level Estimated
08:53AM 25.0217 127.3744 49° Northeast  Level Estimated
08:54AM 25.1156 127.4952 49° Northeast  Level Estimated
08:55AM 25.2094 127.6162 49° Northeast  Level Estimated
08:56AM 25.3031 127.7374 49° Northeast  Level Estimated
08:57AM 25.3967 127.8587 49° Northeast  Level Estimated
08:58AM 25.4902 127.9803 50° Northeast  Level Estimated
08:59AM 25.5836 128.1020 50° Northeast  Level Estimated
09:00AM 25.6770 128.2239 50° Northeast  Level Estimated
09:01AM 25.7702 128.3461 50° Northeast  Level Estimated
09:02AM 25.8633 128.4684 50° Northeast  Level Estimated
09:03AM 25.9563 128.5909 50° Northeast  Level Estimated
09:04AM 26.0492 128.7136 50° Northeast  Level Estimated
09:05AM 26.1420 128.8365 50° Northeast  Level Estimated
09:06AM 26.2346 128.9595 50° Northeast  Level Estimated
09:07AM 26.3272 129.0828 50° Northeast  Level Estimated
09:08AM 26.4197 129.2063 50° Northeast  Level Estimated
09:09AM 26.5121 129.3300 50° Northeast  Level Estimated
09:10AM 26.6043 129.4539 50° Northeast  Level Estimated
09:11AM 26.6965 129.5779 50° Northeast  Level Estimated
09:12AM 26.7885 129.7022 50° Northeast  Level Estimated
09:13AM 26.8805 129.8267 50° Northeast  Level Estimated
09:14AM 26.9723 129.9514 50° Northeast  Level Estimated
09:15AM 27.0640 130.0763 50° Northeast  Level Estimated
09:16AM 27.1556 130.2014 51° Northeast  Level Estimated
09:17AM 27.2472 130.3266 51° Northeast  Level Estimated
09:18AM 27.3385 130.4521 51° Northeast  Level Estimated
09:19AM 27.4298 130.5779 51° Northeast  Level Estimated
09:20AM 27.5210 130.7038 51° Northeast  Level Estimated
09:21AM 27.6120 130.8299 51° Northeast  Level Estimated
09:22AM 27.7030 130.9562 51° Northeast  Level Estimated
09:23AM 27.7938 131.0828 51° Northeast  Level Estimated
09:24AM 27.8845 131.2095 51° Northeast  Level Estimated
09:25AM 27.9751 131.3365 51° Northeast  Level Estimated
09:26AM 28.0656 131.4637 51° Northeast  Level Estimated
09:27AM 28.1559 131.5911 51° Northeast  Level Estimated
09:28AM 28.2462 131.7187 51° Northeast  Level Estimated
09:29AM 28.3363 131.8465 51° Northeast  Level Estimated
09:30AM 28.4263 131.9745 51° Northeast  Level Estimated
09:31AM 28.5162 132.1028 51° Northeast  Level Estimated
09:32AM 28.6059 132.2313 51° Northeast  Level Estimated
09:33AM 28.6956 132.3600 52° Northeast  Level Estimated
09:34AM 28.7851 132.4889 52° Northeast  Level Estimated
09:35AM 28.8745 132.6181 52° Northeast  Level Estimated
09:36AM 28.9637 132.7474 52° Northeast  Level Estimated
09:37AM 29.0529 132.8770 52° Northeast  Level Estimated
09:38AM 29.1419 133.0068 52° Northeast  Level Estimated
09:39AM 29.2308 133.1369 52° Northeast  Level Estimated
09:40AM 29.3196 133.2671 52° Northeast  Level Estimated
09:41AM 29.4082 133.3976 52° Northeast  Level Estimated
09:42AM 29.4967 133.5283 52° Northeast  Level Estimated
09:43AM 29.5851 133.6593 52° Northeast  Level Estimated
09:44AM 29.6734 133.7904 52° Northeast  Level Estimated
09:45AM 29.7615 133.9218 52° Northeast  Level Estimated
09:46AM 29.8495 134.0535 52° Northeast  Level Estimated
09:47AM 29.9374 134.1853 52° Northeast  Level Estimated
09:48AM 30.0251 134.3174 52° Northeast  Level Estimated
09:49AM 30.1127 134.4498 53° Northeast  Level Estimated
09:50AM 30.2002 134.5823 53° Northeast  Level Estimated
09:51AM 30.2875 134.7151 53° Northeast  Level Estimated
09:52AM 30.3748 134.8482 53° Northeast  Level Estimated
09:53AM 30.4618 134.9815 53° Northeast  Level Estimated
09:54AM 30.5487 135.1150 53° Northeast  Level Estimated
09:55AM 30.6355 135.2487 53° Northeast  Level Estimated
09:56AM 30.7222 135.3827 53° Northeast  Level Estimated
09:57AM 30.8087 135.5170 53° Northeast  Level Estimated
09:58AM 30.8951 135.6515 53° Northeast  Level Estimated
09:59AM 30.9813 135.7862 53° Northeast  Level Estimated
10:00AM 31.0674 135.9211 53° Northeast  Level Estimated
10:01AM 31.1534 136.0564 53° Northeast  Level Estimated
10:02AM 31.2392 136.1918 53° Northeast  Level Estimated
10:03AM 31.3249 136.3275 54° Northeast  Level Estimated
10:04AM 31.4104 136.4635 54° Northeast  Level Estimated
10:05AM 31.4958 136.5997 54° Northeast  Level Estimated
10:06AM 31.5811 136.7361 54° Northeast  Level Estimated
10:07AM 31.6662 136.8728 54° Northeast  Level Estimated
10:08AM 31.7512 137.0097 54° Northeast  Level Estimated
10:09AM 31.8360 137.1469 54° Northeast  Level Estimated
10:10AM 31.9206 137.2844 54° Northeast  Level Estimated
10:11AM 32.0051 137.4221 54° Northeast  Level Estimated
10:12AM 32.0895 137.5600 54° Northeast  Level Estimated
10:13AM 32.1737 137.6982 54° Northeast  Level Estimated
10:14AM 32.2578 137.8367 54° Northeast  Level Estimated
10:15AM 32.3417 137.9754 54° Northeast  Level Estimated
10:16AM 32.4255 138.1144 54° Northeast  Level Estimated
10:17AM 32.5091 138.2536 55° Northeast  Level Estimated
10:18AM 32.5925 138.3931 55° Northeast  Level Estimated
10:19AM 32.6758 138.5329 55° Northeast  Level Estimated
10:20AM 32.7590 138.6729 55° Northeast  Level Estimated
10:21AM 32.8420 138.8132 55° Northeast  Level Estimated
10:22AM 32.9248 138.9537 55° Northeast  Level Estimated
10:23AM 33.0075 139.0945 55° Northeast  Level Estimated
10:24AM 33.0900 139.2356 55° Northeast  Level Estimated
10:25AM 33.1724 139.3769 55° Northeast  Level Estimated
10:26AM 33.2546 139.5185 55° Northeast  Level Estimated
10:27AM 33.3366 139.6604 55° Northeast  Level Estimated
10:28AM 33.4185 139.8025 55° Northeast  Level Estimated
10:29AM 33.5002 139.9449 55° Northeast  Level Estimated
10:30AM 33.5817 140.0876 56° Northeast  Level Estimated
10:31AM 33.6631 140.2305 56° Northeast  Level Estimated
10:32AM 33.7444 140.3737 56° Northeast  Level Estimated
10:33AM 33.8254 140.5172 56° Northeast  Level Estimated
10:34AM 33.9063 140.6610 56° Northeast  Level Estimated
10:35AM 33.9870 140.8050 56° Northeast  Level Estimated
10:36AM 34.0676 140.9493 56° Northeast  Level Estimated
10:37AM 34.1480 141.0939 56° Northeast  Level Estimated
10:38AM 34.2282 141.2387 56° Northeast  Level Estimated
10:39AM 34.3082 141.3838 56° Northeast  Level Estimated
10:40AM 34.3881 141.5292 56° Northeast  Level Estimated
10:41AM 34.4678 141.6749 56° Northeast  Level Estimated
10:42AM 34.5473 141.8209 56° Northeast  Level Estimated
10:43AM 34.6267 141.9671 57° Northeast  Level Estimated
10:44AM 34.7059 142.1136 57° Northeast  Level Estimated
10:45AM 34.7849 142.2604 57° Northeast  Level Estimated
10:46AM 34.8637 142.4075 57° Northeast  Level Estimated
10:47AM 34.9423 142.5549 57° Northeast  Level Estimated
10:48AM 35.0208 142.7025 57° Northeast  Level Estimated
10:49AM 35.0991 142.8504 57° Northeast  Level Estimated
10:50AM 35.1772 142.9986 57° Northeast  Level Estimated
10:51AM 35.2551 143.1471 57° Northeast  Level Estimated
10:52AM 35.3329 143.2959 57° Northeast  Level Estimated
10:53AM 35.4105 143.4449 57° Northeast  Level Estimated
10:54AM 35.4878 143.5943 57° Northeast  Level Estimated
10:55AM 35.5650 143.7439 58° Northeast  Level Estimated
10:56AM 35.6421 143.8939 58° Northeast  Level Estimated
10:57AM 35.7189 144.0441 58° Northeast  Level Estimated
10:58AM 35.7955 144.1946 58° Northeast  Level Estimated
10:59AM 35.8720 144.3454 58° Northeast  Level Estimated
11:00AM 35.9482 144.4965 58° Northeast  Level Estimated
11:01AM 36.0243 144.6479 58° Northeast  Level Estimated
11:02AM 36.1002 144.7995 58° Northeast  Level Estimated
11:03AM 36.1759 144.9515 58° Northeast  Level Estimated
11:04AM 36.2514 145.1038 58° Northeast  Level Estimated
11:05AM 36.3267 145.2563 58° Northeast  Level Estimated
11:06AM 36.4018 145.4092 59° Northeast  Level Estimated
11:07AM 36.4767 145.5623 59° Northeast  Level Estimated
11:08AM 36.5514 145.7157 59° Northeast  Level Estimated
11:09AM 36.6259 145.8695 59° Northeast  Level Estimated
11:10AM 36.7003 146.0235 59° Northeast  Level Estimated
11:11AM 36.7744 146.1778 59° Northeast  Level Estimated
11:12AM 36.8483 146.3325 59° Northeast  Level Estimated
11:13AM 36.9221 146.4874 59° Northeast  Level Estimated
11:14AM 36.9956 146.6426 59° Northeast  Level Estimated
11:15AM 37.0689 146.7982 59° Northeast  Level Estimated
11:16AM 37.1420 146.9540 59° Northeast  Level Estimated
11:17AM 37.2150 147.1101 60° Northeast  Level Estimated
11:18AM 37.2877 147.2665 60° Northeast  Level Estimated
11:19AM 37.3602 147.4233 60° Northeast  Level Estimated
11:20AM 37.4325 147.5803 60° Northeast  Level Estimated
11:21AM 37.5046 147.7376 60° Northeast  Level Estimated
11:22AM 37.5764 147.8953 60° Northeast  Level Estimated
11:23AM 37.6481 148.0532 60° Northeast  Level Estimated
11:24AM 37.7196 148.2115 60° Northeast  Level Estimated
11:25AM 37.7908 148.3700 60° Northeast  Level Estimated
11:26AM 37.8618 148.5289 60° Northeast  Level Estimated
11:27AM 37.9327 148.6880 61° Northeast  Level Estimated
11:28AM 38.0033 148.8475 61° Northeast  Level Estimated
11:29AM 38.0737 149.0073 61° Northeast  Level Estimated
11:30AM 38.1438 149.1674 61° Northeast  Level Estimated
11:31AM 38.2138 149.3278 61° Northeast  Level Estimated
11:32AM 38.2835 149.4885 61° Northeast  Level Estimated
11:33AM 38.3530 149.6495 61° Northeast  Level Estimated
11:34AM 38.4223 149.8108 61° Northeast  Level Estimated
11:35AM 38.4914 149.9724 61° Northeast  Level Estimated
11:36AM 38.5602 150.1344 61° Northeast  Level Estimated
11:37AM 38.6289 150.2966 62° Northeast  Level Estimated
11:38AM 38.6973 150.4592 62° Northeast  Level Estimated
11:39AM 38.7655 150.6221 62° Northeast  Level Estimated
11:40AM 38.8334 150.7852 62° Northeast  Level Estimated
11:41AM 38.9011 150.9487 62° Northeast  Level Estimated
11:42AM 38.9686 151.1125 62° Northeast  Level Estimated
11:43AM 39.0359 151.2767 62° Northeast  Level Estimated
11:44AM 39.1029 151.4411 62° Northeast  Level Estimated
11:45AM 39.1697 151.6058 62° Northeast  Level Estimated
11:46AM 39.2363 151.7709 62° Northeast  Level Estimated
11:47AM 39.3027 151.9362 63° Northeast  Level Estimated
11:48AM 39.3688 152.1019 63° Northeast  Level Estimated
11:49AM 39.4346 152.2679 63° Northeast  Level Estimated
11:50AM 39.5003 152.4342 63° Northeast  Level Estimated
11:51AM 39.5656 152.6008 63° Northeast  Level Estimated
11:52AM 39.6308 152.7678 63° Northeast  Level Estimated
11:53AM 39.6957 152.9350 63° Northeast  Level Estimated
11:54AM 39.7604 153.1026 63° Northeast  Level Estimated
11:55AM 39.8248 153.2705 63° Northeast  Level Estimated
11:56AM 39.8890 153.4386 64° Northeast  Level Estimated
11:57AM 39.9530 153.6072 64° Northeast  Level Estimated
11:58AM 40.0167 153.7760 64° Northeast  Level Estimated
11:59AM 40.0802 153.9451 64° Northeast  Level Estimated
12:00PM 40.1434 154.1146 64° Northeast  Level Estimated
12:01PM 40.2063 154.2843 64° Northeast  Level Estimated
12:02PM 40.2691 154.4544 64° Northeast  Level Estimated
12:03PM 40.3315 154.6248 64° Northeast  Level Estimated
12:04PM 40.3937 154.7955 64° Northeast  Level Estimated
12:05PM 40.4557 154.9666 64° Northeast  Level Estimated
12:06PM 40.5174 155.1379 65° Northeast  Level Estimated
12:07PM 40.5789 155.3096 65° Northeast  Level Estimated
12:08PM 40.6401 155.4815 65° Northeast  Level Estimated
12:09PM 40.7010 155.6538 65° Northeast  Level Estimated
12:10PM 40.7617 155.8264 65° Northeast  Level Estimated
12:11PM 40.8222 155.9993 65° Northeast  Level Estimated
12:12PM 40.8824 156.1726 65° Northeast  Level Estimated
12:13PM 40.9423 156.3461 65° Northeast  Level Estimated
12:14PM 41.0019 156.5200 66° East  Level Estimated
12:15PM 41.0613 156.6942 66° East  Level Estimated
12:16PM 41.1204 156.8687 66° East  Level Estimated
12:17PM 41.1793 157.0435 66° East  Level Estimated
12:18PM 41.2379 157.2186 66° East  Level Estimated
12:19PM 41.2963 157.3940 66° East  Level Estimated
12:20PM 41.3543 157.5697 66° East  Level Estimated
12:21PM 41.4121 157.7458 66° East  Level Estimated
12:22PM 41.4697 157.9222 66° East  Level Estimated
12:23PM 41.5269 158.0988 67° East  Level Estimated
12:24PM 41.5839 158.2758 67° East  Level Estimated
12:25PM 41.6406 158.4532 67° East  Level Estimated
12:26PM 41.6971 158.6308 67° East  Level Estimated
12:27PM 41.7533 158.8087 67° East  Level Estimated
12:28PM 41.8092 158.9870 67° East  Level Estimated
12:29PM 41.8648 159.1655 67° East  Level Estimated
12:30PM 41.9201 159.3444 67° East  Level Estimated
12:31PM 41.9752 159.5235 67° East  Level Estimated
12:31PM 38.6333 165.0000 69° East 600 690 39,000  Level Oakland Oceanic (ODAPS)
12:32PM 42.0300 159.7030 68° East  Level Estimated
12:33PM 42.0845 159.8828 68° East  Level Estimated
12:34PM 42.1387 160.0629 68° East  Level Estimated
12:35PM 42.1927 160.2433 68° East  Level Estimated
12:36PM 42.2463 160.4240 68° East  Level Estimated
12:37PM 38.9949 166.2316 70° East 600 690 39,000  Level FlightAware Transoceanic
12:38PM 39.0539 166.4380 70° East 600 690 39,000  Level FlightAware Transoceanic
12:39PM 39.1125 166.6449 70° East 600 690 39,000  Level FlightAware Transoceanic
12:40PM 39.1708 166.8520 70° East 600 690 39,000  Level FlightAware Transoceanic
12:41PM 39.2287 167.0595 70° East 600 690 39,000  Level FlightAware Transoceanic
12:42PM 39.2863 167.2674 70° East 600 690 39,000  Level FlightAware Transoceanic
12:43PM 39.3434 167.4756 71° East 600 690 39,000  Level FlightAware Transoceanic
12:43PM 39.3500 167.4667 71° East 596 686 39,000  Level Oakland Oceanic (ODAPS)
12:44PM 39.4002 167.6841 71° East 600 690 39,000  Level FlightAware Transoceanic
12:45PM 39.4566 167.8930 71° East 600 690 39,000  Level FlightAware Transoceanic
12:46PM 39.5127 168.1022 71° East 600 690 39,000  Level FlightAware Transoceanic
12:47PM 39.5683 168.3117 71° East 600 690 39,000  Level FlightAware Transoceanic
12:48PM 39.6236 168.5216 71° East 600 690 39,000  Level FlightAware Transoceanic
12:49PM 39.6819 168.7274 72° East 596 686 39,000  Level FlightAware Transoceanic
12:50PM 39.7359 168.9387 72° East 596 686 39,000  Level FlightAware Transoceanic
12:51PM 39.7895 169.1503 72° East 596 686 39,000  Level FlightAware Transoceanic
12:52PM 39.8427 169.3622 72° East 596 686 39,000  Level FlightAware Transoceanic
12:53PM 39.8955 169.5745 72° East 596 686 39,000  Level FlightAware Transoceanic
12:54PM 39.9479 169.7871 72° East 596 686 39,000  Level FlightAware Transoceanic
12:55PM 40.0000 170.0000 79° East 596 686 39,000  Level FlightAware Transoceanic
12:55PM 40.0000 170.0000 79° East 563 648 39,000  Level Oakland Oceanic (ODAPS)
12:56PM 40.0302 170.2093 79° East 596 686 39,000  Level FlightAware Transoceanic
12:57PM 40.0600 170.4187 80° East 596 686 39,000  Level FlightAware Transoceanic
12:57PM 40.0500 170.3167 80° East 587 676 39,000  Level Oakland Oceanic (ODAPS)
12:58PM 40.0894 170.6284 80° East 596 686 39,000  Level FlightAware Transoceanic
12:59PM 40.1184 170.8382 80° East 596 686 39,000  Level FlightAware Transoceanic
01:00PM 40.1470 171.0482 80° East 596 686 39,000  Level FlightAware Transoceanic
01:01PM 40.1753 171.2583 80° East 596 686 39,000  Level FlightAware Transoceanic
01:02PM 40.1915 171.3803 80° East 563 648 39,000  Level FlightAware Transoceanic
01:03PM 40.2231 171.5904 80° East 587 676 39,000  Level FlightAware Transoceanic
01:04PM 40.2505 171.8033 80° East 587 676 39,000  Level FlightAware Transoceanic
01:05PM 40.2776 172.0164 81° East 587 676 39,000  Level FlightAware Transoceanic
01:06PM 40.3043 172.2296 81° East 587 676 39,000  Level FlightAware Transoceanic
01:07PM 40.3306 172.4430 81° East 587 676 39,000  Level FlightAware Transoceanic
01:08PM 40.3566 172.6566 81° East 587 676 39,000  Level FlightAware Transoceanic
01:09PM 40.3821 172.8704 81° East 587 676 39,000  Level FlightAware Transoceanic
01:10PM 40.4072 173.0843 81° East 587 676 39,000  Level FlightAware Transoceanic
01:10PM 40.4333 173.3167 81° East 603 694 39,000  Level Oakland Oceanic (ODAPS)
01:11PM 40.4319 173.2983 81° East 587 676 39,000  Level FlightAware Transoceanic
01:12PM 40.4563 173.5125 82° East 587 676 39,000  Level FlightAware Transoceanic
01:13PM 40.4802 173.7269 82° East 587 676 39,000  Level FlightAware Transoceanic
01:14PM 40.5038 173.9414 82° East 587 676 39,000  Level FlightAware Transoceanic
01:15PM 40.5269 174.1561 82° East 587 676 39,000  Level FlightAware Transoceanic
01:16PM 40.5497 174.3709 82° East 587 676 39,000  Level FlightAware Transoceanic
01:17PM 40.5774 174.6436 82° East 603 694 39,000  Level FlightAware Transoceanic
01:18PM 40.5999 174.8654 82° East 603 694 39,000  Level FlightAware Transoceanic
01:19PM 40.6221 175.0872 83° East 603 694 39,000  Level FlightAware Transoceanic
01:20PM 40.6437 175.3092 83° East 603 694 39,000  Level FlightAware Transoceanic
01:21PM 40.6650 175.5313 83° East 603 694 39,000  Level FlightAware Transoceanic
01:22PM 40.6858 175.7536 83° East 603 694 39,000  Level FlightAware Transoceanic
01:23PM 40.7062 175.9760 83° East 603 694 39,000  Level FlightAware Transoceanic
01:24PM 40.7262 176.1986 83° East 603 694 39,000  Level FlightAware Transoceanic
01:24PM 40.7333 176.3333 83° East 604 695 39,000  Level Oakland Oceanic (ODAPS)
01:25PM 40.7458 176.4213 83° East 603 694 39,000  Level FlightAware Transoceanic
01:26PM 40.7649 176.6441 84° East 603 694 39,000  Level FlightAware Transoceanic
01:27PM 40.7836 176.8670 84° East 603 694 39,000  Level FlightAware Transoceanic
01:28PM 40.8018 177.0901 84° East 603 694 39,000  Level FlightAware Transoceanic
01:29PM 40.8197 177.3133 84° East 603 694 39,000  Level FlightAware Transoceanic
01:30PM 40.8371 177.5366 84° East 603 694 39,000  Level FlightAware Transoceanic
01:31PM 40.8469 177.7048 84° East 604 695 39,000  Level FlightAware Transoceanic
01:32PM 40.8643 177.9338 84° East 604 695 39,000  Level FlightAware Transoceanic
01:33PM 40.8812 178.1630 85° East 604 695 39,000  Level FlightAware Transoceanic
01:34PM 40.8976 178.3922 85° East 604 695 39,000  Level FlightAware Transoceanic
01:35PM 40.9136 178.6216 85° East 604 695 39,000  Level FlightAware Transoceanic
01:36PM 40.9291 178.8511 85° East 604 695 39,000  Level FlightAware Transoceanic
01:37PM 40.9442 179.0807 85° East 604 695 39,000  Level FlightAware Transoceanic
01:38PM 40.9589 179.3103 85° East 604 695 39,000  Level FlightAware Transoceanic
01:38PM 40.9667 179.3833 86° East 608 700 39,000  Level Oakland Oceanic (ODAPS)
01:39PM 40.9730 179.5401 85° East 604 695 39,000  Level FlightAware Transoceanic
01:40PM 40.9867 179.7700 86° East 604 695 39,000  Level FlightAware Transoceanic
01:41PM 41.0000 -180.0000 79° East 604 695 39,000  Level FlightAware Transoceanic
01:41PM 41.0000 180.0000 79° East 564 649 39,000  Level Oakland Oceanic (ODAPS)
01:42PM 41.0302 -179.7909 79° East 604 695 39,000  Level FlightAware Transoceanic
01:43PM 41.0600 -179.5815 79° East 604 695 39,000  Level FlightAware Transoceanic
01:44PM 41.0895 -179.3720 80° East 604 695 39,000  Level FlightAware Transoceanic
01:45PM 41.1185 -179.1623 80° East 608 700 39,000  Level FlightAware Transoceanic
01:46PM 41.1472 -178.9524 80° East 608 700 39,000  Level FlightAware Transoceanic
01:47PM 41.1686 -178.7938 80° East 564 649 39,000  Level FlightAware Transoceanic
01:48PM 41.1955 -178.5921 80° East 564 649 39,000  Level FlightAware Transoceanic
01:49PM 41.2220 -178.3904 80° East 564 649 39,000  Level FlightAware Transoceanic
01:50PM 41.2482 -178.1884 80° East 564 649 39,000  Level FlightAware Transoceanic
01:51PM 41.2740 -177.9863 80° East 564 649 39,000  Level FlightAware Transoceanic
01:52PM 41.2995 -177.7840 81° East 564 649 39,000  Level FlightAware Transoceanic
01:52PM 41.3333 -177.5500 81° East 560 644 39,000  Level Oakland Oceanic (ODAPS)
01:53PM 41.3246 -177.5816 81° East 564 649 39,000  Level FlightAware Transoceanic
01:54PM 41.3494 -177.3790 81° East 564 649 39,000  Level FlightAware Transoceanic
01:55PM 41.3738 -177.1762 81° East 564 649 39,000  Level FlightAware Transoceanic
01:56PM 41.3978 -176.9733 81° East 564 649 39,000  Level FlightAware Transoceanic
01:57PM 41.4215 -176.7703 81° East 564 649 39,000  Level FlightAware Transoceanic
01:58PM 41.4749 -176.3371 82° East 560 644 39,000  Level FlightAware Transoceanic
01:59PM 41.4972 -176.1345 82° East 560 644 39,000  Level FlightAware Transoceanic
02:00PM 41.5192 -175.9317 82° East 560 644 39,000  Level FlightAware Transoceanic
02:01PM 41.5408 -175.7288 82° East 560 644 39,000  Level FlightAware Transoceanic
02:02PM 41.5621 -175.5257 82° East 560 644 39,000  Level FlightAware Transoceanic
02:03PM 41.5830 -175.3225 82° East 560 644 39,000  Level FlightAware Transoceanic
02:04PM 41.6036 -175.1192 82° East 560 644 39,000  Level FlightAware Transoceanic
02:05PM 41.6238 -174.9158 83° East 560 644 39,000  Level FlightAware Transoceanic
02:06PM 41.6436 -174.7122 83° East 560 644 39,000  Level FlightAware Transoceanic
02:06PM 41.6667 -174.5167 83° East 556 640 39,000  Level Oakland Oceanic (ODAPS)
02:07PM 41.6631 -174.5085 83° East 560 644 39,000  Level FlightAware Transoceanic
02:08PM 41.6822 -174.3047 83° East 560 644 39,000  Level FlightAware Transoceanic
02:09PM 41.7010 -174.1007 83° East 560 644 39,000  Level FlightAware Transoceanic
02:10PM 41.7194 -173.8967 83° East 560 644 39,000  Level FlightAware Transoceanic
02:11PM 41.7374 -173.6925 83° East 560 644 39,000  Level FlightAware Transoceanic
02:12PM 41.7751 -173.2897 84° East 556 640 39,000  Level FlightAware Transoceanic
02:13PM 41.7919 -173.0848 84° East 556 640 39,000  Level FlightAware Transoceanic
02:14PM 41.8083 -172.8798 84° East 556 640 39,000  Level FlightAware Transoceanic
02:15PM 41.8244 -172.6747 84° East 556 640 39,000  Level FlightAware Transoceanic
02:16PM 41.8401 -172.4695 84° East 556 640 39,000  Level FlightAware Transoceanic
02:17PM 41.8555 -172.2642 84° East 556 640 39,000  Level FlightAware Transoceanic
02:18PM 41.8704 -172.0588 84° East 556 640 39,000  Level FlightAware Transoceanic
02:19PM 41.8850 -171.8533 85° East 556 640 39,000  Level FlightAware Transoceanic
02:20PM 41.8993 -171.6477 85° East 556 640 39,000  Level FlightAware Transoceanic
02:20PM 41.9000 -171.5167 84° East 569 655 39,000  Level Oakland Oceanic (ODAPS)
02:21PM 41.9132 -171.4421 85° East 556 640 39,000  Level FlightAware Transoceanic
02:22PM 41.9267 -171.2363 85° East 556 640 39,000  Level FlightAware Transoceanic
02:23PM 41.9398 -171.0305 85° East 556 640 39,000  Level FlightAware Transoceanic
02:24PM 41.9526 -170.8245 85° East 556 640 39,000  Level FlightAware Transoceanic
02:25PM 41.9650 -170.6185 85° East 556 640 39,000  Level FlightAware Transoceanic
02:26PM 41.9869 -170.2169 85° East 569 655 39,000  Level FlightAware Transoceanic
02:27PM 42.0000 -170.0000 87° East 569 655 39,000  Level FlightAware Transoceanic
02:27PM 42.0000 -170.0000 87° East 541 623 39,000  Level Oakland Oceanic (ODAPS)
02:28PM 42.0085 -169.8004 87° East 569 655 39,000  Level FlightAware Transoceanic
02:29PM 42.0167 -169.6008 87° East 569 655 39,000  Level FlightAware Transoceanic
02:30PM 42.0245 -169.4011 87° East 569 655 39,000  Level FlightAware Transoceanic
02:31PM 42.0320 -169.2014 87° East 569 655 39,000  Level FlightAware Transoceanic
02:32PM 42.0391 -169.0016 87° East 569 655 39,000  Level FlightAware Transoceanic
02:33PM 42.0459 -168.8018 87° East 569 655 39,000  Level FlightAware Transoceanic
02:34PM 42.0523 -168.6020 88° East 541 623 39,000  Level FlightAware Transoceanic
02:34PM 42.0500 -168.5667 88° East 540 621 39,000  Level Oakland Oceanic (ODAPS)
02:35PM 42.0584 -168.4021 88° East 541 623 39,000  Level FlightAware Transoceanic
02:36PM 42.0641 -168.2021 88° East 541 623 39,000  Level FlightAware Transoceanic
02:37PM 42.0695 -168.0022 88° East 541 623 39,000  Level FlightAware Transoceanic
02:38PM 42.0746 -167.8022 88° East 541 623 39,000  Level FlightAware Transoceanic
02:39PM 42.0792 -167.6022 88° East 541 623 39,000  Level FlightAware Transoceanic
02:40PM 42.0819 -167.3433 88° East 540 621 39,000  Level FlightAware Transoceanic
02:41PM 42.0859 -167.1393 89° East 540 621 39,000  Level FlightAware Transoceanic
02:42PM 42.0896 -166.9353 89° East 540 621 39,000  Level FlightAware Transoceanic
02:43PM 42.0930 -166.7312 89° East 540 621 39,000  Level FlightAware Transoceanic
02:44PM 42.0959 -166.5271 89° East 540 621 39,000  Level FlightAware Transoceanic
02:45PM 42.0985 -166.3230 89° East 540 621 39,000  Level FlightAware Transoceanic
02:46PM 42.1008 -166.1189 89° East 540 621 39,000  Level FlightAware Transoceanic
02:47PM 42.1027 -165.9148 89° East 540 621 39,000  Level FlightAware Transoceanic
02:47PM 42.1000 -165.6333 89° East 534 615 39,000  Level Oakland Oceanic (ODAPS)
02:48PM 42.1042 -165.7107 89° East 540 621 39,000  Level FlightAware Transoceanic
02:49PM 42.1054 -165.5065 90° East 540 621 39,000  Level FlightAware Transoceanic
02:50PM 42.1062 -165.3024 90° East 540 621 39,000  Level FlightAware Transoceanic
02:51PM 42.1066 -165.0982 90° East 540 621 39,000  Level FlightAware Transoceanic
02:52PM 42.1067 -164.8941 90° East 540 621 39,000  Level FlightAware Transoceanic
02:53PM 42.1064 -164.6899 90° East 540 621 39,000  Level FlightAware Transoceanic
02:54PM 42.1018 -164.4251 90° East 534 615 39,000  Level FlightAware Transoceanic
02:55PM 42.1008 -164.2237 90° East 534 615 39,000  Level FlightAware Transoceanic
02:56PM 42.0996 -164.0224 91° East 534 615 39,000  Level FlightAware Transoceanic
02:57PM 42.0979 -163.8210 91° East 534 615 39,000  Level FlightAware Transoceanic
02:58PM 42.0959 -163.6197 91° East 534 615 39,000  Level FlightAware Transoceanic
02:59PM 42.0936 -163.4183 91° East 534 615 39,000  Level FlightAware Transoceanic
03:00PM 42.0909 -163.2170 91° East 534 615 39,000  Level FlightAware Transoceanic
03:01PM 42.0878 -163.0157 91° East 534 615 39,000  Level FlightAware Transoceanic
03:01PM 42.0833 -162.8500 91° East 515 593 39,000  Level Oakland Oceanic (ODAPS)
03:02PM 42.0844 -162.8145 91° East 534 615 39,000  Level FlightAware Transoceanic
03:03PM 42.0807 -162.6132 92° East 534 615 39,000  Level FlightAware Transoceanic
03:04PM 42.0766 -162.4120 92° East 534 615 39,000  Level FlightAware Transoceanic
03:05PM 42.0721 -162.2108 92° East 534 615 39,000  Level FlightAware Transoceanic
03:06PM 42.0673 -162.0096 92° East 534 615 39,000  Level FlightAware Transoceanic
03:07PM 42.0622 -161.8085 92° East 534 615 39,000  Level FlightAware Transoceanic
03:08PM 42.0563 -161.6277 92° East 515 593 39,000  Level FlightAware Transoceanic
03:09PM 42.0505 -161.4241 92° East 515 593 39,000  Level FlightAware Transoceanic
03:10PM 42.0443 -161.2205 92° East 515 593 39,000  Level FlightAware Transoceanic
03:11PM 42.0378 -161.0170 93° East 515 593 39,000  Level FlightAware Transoceanic
03:12PM 42.0310 -160.8135 93° East 515 593 39,000  Level FlightAware Transoceanic
03:13PM 42.0238 -160.6100 93° East 515 593 39,000  Level FlightAware Transoceanic
03:14PM 42.0162 -160.4066 93° East 515 593 39,000  Level FlightAware Transoceanic
03:15PM 42.0083 -160.2033 93° East 515 593 39,000  Level FlightAware Transoceanic
03:15PM 42.0000 -160.1833 90° East 443 510 39,000  Level Oakland Oceanic (ODAPS)
03:16PM 42.0000 -160.0000 87° East 515 593 39,000  Level FlightAware Transoceanic
03:16PM 42.0000 -159.9833 87° East 497 572 39,000  Level Oakland Oceanic (ODAPS)
03:17PM 42.0079 -159.8152 87° East 515 593 39,000  Level FlightAware Transoceanic
03:18PM 42.0155 -159.6304 87° East 515 593 39,000  Level FlightAware Transoceanic
03:19PM 42.0228 -159.4455 87° East 515 593 39,000  Level FlightAware Transoceanic
03:20PM 42.0298 -159.2606 87° East 515 593 39,000  Level FlightAware Transoceanic
03:21PM 42.0365 -159.0756 87° East 515 593 39,000  Level FlightAware Transoceanic
03:22PM 42.0365 -159.0756 87° East 443 510 39,000  Level FlightAware Transoceanic
03:23PM 42.0434 -158.8549 87° East 497 572 39,000  Level FlightAware Transoceanic
03:24PM 42.0496 -158.6667 88° East 497 572 39,000  Level FlightAware Transoceanic
03:25PM 42.0555 -158.4785 88° East 497 572 39,000  Level FlightAware Transoceanic
03:26PM 42.0610 -158.2902 88° East 497 572 39,000  Level FlightAware Transoceanic
03:27PM 42.0663 -158.1019 88° East 497 572 39,000  Level FlightAware Transoceanic
03:28PM 42.0712 -157.9135 88° East 497 572 39,000  Level FlightAware Transoceanic
03:29PM 42.0758 -157.7251 88° East 497 572 39,000  Level FlightAware Transoceanic
03:29PM 42.0833 -157.6000 88° East 493 567 39,000  Level Oakland Oceanic (ODAPS)
03:30PM 42.0802 -157.5367 88° East 497 572 39,000  Level FlightAware Transoceanic
03:31PM 42.0842 -157.3483 88° East 497 572 39,000  Level FlightAware Transoceanic
03:32PM 42.0879 -157.1599 89° East 497 572 39,000  Level FlightAware Transoceanic
03:33PM 42.0913 -156.9714 89° East 497 572 39,000  Level FlightAware Transoceanic
03:34PM 42.0943 -156.7829 89° East 497 572 39,000  Level FlightAware Transoceanic
03:35PM 42.0971 -156.5944 89° East 497 572 39,000  Level FlightAware Transoceanic
03:36PM 42.1043 -156.3329 89° East 493 567 39,000  Level FlightAware Transoceanic
03:37PM 42.1062 -156.1518 89° East 493 567 39,000  Level FlightAware Transoceanic
03:38PM 42.1077 -155.9707 89° East 493 567 39,000  Level FlightAware Transoceanic
03:39PM 42.1090 -155.7896 90° East 493 567 39,000  Level FlightAware Transoceanic
03:40PM 42.1100 -155.6085 90° East 493 567 39,000  Level FlightAware Transoceanic
03:41PM 42.1107 -155.4274 90° East 493 567 39,000  Level FlightAware Transoceanic
03:42PM 42.1112 -155.2463 90° East 493 567 39,000  Level FlightAware Transoceanic
03:43PM 42.1113 -155.0652 90° East 493 567 39,000  Level FlightAware Transoceanic
03:43PM 42.1167 -155.0500 90° East 488 562 39,000  Level Oakland Oceanic (ODAPS)
03:44PM 42.1112 -154.8841 90° East 493 567 39,000  Level FlightAware Transoceanic
03:45PM 42.1108 -154.7030 90° East 493 567 39,000  Level FlightAware Transoceanic
03:46PM 42.1101 -154.5219 90° East 493 567 39,000  Level FlightAware Transoceanic
03:47PM 42.1091 -154.3408 90° East 493 567 39,000  Level FlightAware Transoceanic
03:48PM 42.1078 -154.1597 91° East 493 567 39,000  Level FlightAware Transoceanic
03:49PM 42.1103 -153.9666 91° East 488 562 39,000  Level FlightAware Transoceanic
03:50PM 42.1083 -153.7860 91° East 488 562 39,000  Level FlightAware Transoceanic
03:51PM 42.1059 -153.6055 91° East 488 562 39,000  Level FlightAware Transoceanic
03:52PM 42.1033 -153.4250 91° East 488 562 39,000  Level FlightAware Transoceanic
03:53PM 42.1004 -153.2445 91° East 488 562 39,000  Level FlightAware Transoceanic
03:54PM 42.0973 -153.0640 91° East 488 562 39,000  Level FlightAware Transoceanic
03:55PM 42.0938 -152.8835 92° East 488 562 39,000  Level FlightAware Transoceanic
03:56PM 42.0900 -152.7031 92° East 488 562 39,000  Level FlightAware Transoceanic
03:57PM 42.0860 -152.5227 92° East 488 562 39,000 720 Level FlightAware Transoceanic
03:57PM 42.0833 -152.5500 92° East 479 551 40,000  Climbing Oakland Oceanic (ODAPS)
03:58PM 42.0817 -152.3423 92° East 488 562 39,000 -600 Descending FlightAware Transoceanic
03:59PM 42.0771 -152.1619 92° East 488 562 39,000  Level FlightAware Transoceanic
04:00PM 42.0722 -151.9816 92° East 488 562 39,000  Level FlightAware Transoceanic
04:01PM 42.0671 -151.8013 92° East 488 562 39,000  Level FlightAware Transoceanic
04:02PM 42.0616 -151.6210 92° East 488 562 39,000 480 Level FlightAware Transoceanic
04:03PM 42.0545 -151.4563 92° East 479 551 40,000 480 Climbing FlightAware Transoceanic
04:04PM 42.0487 -151.2742 93° East 479 551 40,000  Level FlightAware Transoceanic
04:05PM 42.0426 -151.0920 93° East 479 551 40,000  Level FlightAware Transoceanic
04:06PM 42.0362 -150.9099 93° East 479 551 40,000  Level FlightAware Transoceanic
04:07PM 42.0296 -150.7279 93° East 479 551 40,000  Level FlightAware Transoceanic
04:08PM 42.0226 -150.5458 93° East 479 551 40,000  Level FlightAware Transoceanic
04:09PM 42.0154 -150.3638 93° East 479 551 40,000  Level FlightAware Transoceanic
04:10PM 42.0078 -150.1819 93° East 479 551 40,000  Level FlightAware Transoceanic
04:11PM 42.0000 -150.0000 94° East 479 551 40,000  Level FlightAware Transoceanic
04:11PM 42.0000 -150.0833 90° East 410 472 40,000  Level Oakland Oceanic (ODAPS)
04:11PM 42.0000 -150.0000 94° East 463 533 40,000  Level Oakland Oceanic (ODAPS)
04:12PM 41.9903 -149.8283 94° East 479 551 40,000  Level FlightAware Transoceanic
04:13PM 41.9804 -149.6566 94° East 479 551 40,000  Level FlightAware Transoceanic
04:14PM 41.9703 -149.4850 95° East 479 551 40,000  Level FlightAware Transoceanic
04:15PM 41.9599 -149.3134 95° East 479 551 40,000  Level FlightAware Transoceanic
04:16PM 41.9492 -149.1419 95° East 479 551 40,000  Level FlightAware Transoceanic
04:17PM 41.9482 -149.1271 95° East 410 472 40,000  Level FlightAware Transoceanic
04:18PM 41.9371 -148.9527 95° East 463 533 40,000  Level FlightAware Transoceanic
04:19PM 41.9257 -148.7784 95° East 463 533 40,000  Level FlightAware Transoceanic
04:20PM 41.9140 -148.6041 95° East 463 533 40,000  Level FlightAware Transoceanic
04:21PM 41.9021 -148.4299 95° East 463 533 40,000  Level FlightAware Transoceanic
04:22PM 41.8899 -148.2558 95° East 463 533 40,000  Level FlightAware Transoceanic
04:23PM 41.8774 -148.0817 96° East 463 533 40,000  Level FlightAware Transoceanic
04:24PM 41.8647 -147.9077 96° East 463 533 40,000  Level FlightAware Transoceanic
04:25PM 41.8517 -147.7337 96° East 463 533 40,000  Level FlightAware Transoceanic
04:25PM 41.8500 -147.6667 96° East 460 529 40,000  Level Oakland Oceanic (ODAPS)
04:26PM 41.8385 -147.5598 96° East 463 533 40,000  Level FlightAware Transoceanic
04:27PM 41.8250 -147.3861 96° East 463 533 40,000  Level FlightAware Transoceanic
04:28PM 41.8112 -147.2123 96° East 463 533 40,000  Level FlightAware Transoceanic
04:29PM 41.7971 -147.0387 96° East 463 533 40,000  Level FlightAware Transoceanic
04:30PM 41.7828 -146.8651 96° East 463 533 40,000  Level FlightAware Transoceanic
04:31PM 41.7663 -146.6336 97° East 460 529 40,000  Level FlightAware Transoceanic
04:32PM 41.7514 -146.4617 97° East 460 529 40,000  Level FlightAware Transoceanic
04:33PM 41.7363 -146.2899 97° East 460 529 40,000  Level FlightAware Transoceanic
04:34PM 41.7210 -146.1181 97° East 460 529 40,000  Level FlightAware Transoceanic
04:35PM 41.7053 -145.9465 97° East 460 529 40,000  Level FlightAware Transoceanic
04:36PM 41.6895 -145.7749 97° East 460 529 40,000  Level FlightAware Transoceanic
04:37PM 41.6734 -145.6034 97° East 460 529 40,000  Level FlightAware Transoceanic
04:38PM 41.6570 -145.4320 97° East 460 529 40,000  Level FlightAware Transoceanic
04:38PM 41.6333 -145.2833 97° East 455 524 40,000  Level Oakland Oceanic (ODAPS)
04:39PM 41.6403 -145.2607 97° East 460 529 40,000  Level FlightAware Transoceanic
04:40PM 41.6234 -145.0895 98° East 460 529 40,000  Level FlightAware Transoceanic
04:41PM 41.6063 -144.9183 98° East 460 529 40,000  Level FlightAware Transoceanic
04:42PM 41.5889 -144.7473 98° East 460 529 40,000  Level FlightAware Transoceanic
04:43PM 41.5712 -144.5763 98° East 460 529 40,000  Level FlightAware Transoceanic
04:44PM 41.5533 -144.4055 98° East 460 529 40,000  Level FlightAware Transoceanic
04:45PM 41.5331 -144.2852 98° East 455 524 40,000  Level FlightAware Transoceanic
04:46PM 41.5155 -144.1191 98° East 455 524 40,000  Level FlightAware Transoceanic
04:47PM 41.4977 -143.9531 98° East 455 524 40,000  Level FlightAware Transoceanic
04:48PM 41.4797 -143.7873 98° East 455 524 40,000  Level FlightAware Transoceanic
04:49PM 41.4614 -143.6215 98° East 455 524 40,000  Level FlightAware Transoceanic
04:50PM 41.4429 -143.4558 99° East 455 524 40,000  Level FlightAware Transoceanic
04:51PM 41.4242 -143.2902 99° East 455 524 40,000  Level FlightAware Transoceanic
04:52PM 41.4052 -143.1247 99° East 455 524 40,000  Level FlightAware Transoceanic
04:52PM 41.3833 -142.9667 99° East 455 524 40,000  Level Oakland Oceanic (ODAPS)
04:53PM 41.3860 -142.9593 99° East 455 524 40,000  Level FlightAware Transoceanic
04:54PM 41.3666 -142.7940 99° East 455 524 40,000  Level FlightAware Transoceanic
04:55PM 41.3469 -142.6288 99° East 455 524 40,000  Level FlightAware Transoceanic
04:56PM 41.3270 -142.4637 99° East 455 524 40,000  Level FlightAware Transoceanic
04:57PM 41.3068 -142.2987 99° East 455 524 40,000  Level FlightAware Transoceanic
04:58PM 41.2864 -142.1338 99° East 455 524 40,000  Level FlightAware Transoceanic
04:59PM 41.2640 -141.9740 99° East 455 524 40,000  Level FlightAware Transoceanic
05:00PM 41.2433 -141.8089 100° East 455 524 40,000  Level FlightAware Transoceanic
05:01PM 41.2224 -141.6439 100° East 455 524 40,000  Level FlightAware Transoceanic
05:02PM 41.2012 -141.4790 100° East 455 524 40,000  Level FlightAware Transoceanic
05:03PM 41.1798 -141.3142 100° East 455 524 40,000  Level FlightAware Transoceanic
05:04PM 41.1581 -141.1496 100° East 455 524 40,000  Level FlightAware Transoceanic
05:05PM 41.1362 -140.9850 100° East 455 524 40,000  Level FlightAware Transoceanic
05:06PM 41.1141 -140.8205 100° East 455 524 40,000  Level FlightAware Transoceanic
05:06PM 41.1000 -140.7167 100° East 421 484 40,000  Level Oakland Oceanic (ODAPS)
05:07PM 41.0918 -140.6562 100° East 455 524 40,000  Level FlightAware Transoceanic
05:08PM 41.0692 -140.4920 100° East 455 524 40,000  Level FlightAware Transoceanic
05:09PM 41.0463 -140.3279 101° East 455 524 40,000  Level FlightAware Transoceanic
05:10PM 41.0233 -140.1639 101° East 455 524 40,000  Level FlightAware Transoceanic
05:11PM 41.0000 -140.0000 108° East 455 524 40,000  Level FlightAware Transoceanic
05:11PM 41.0000 -140.0000 108° East 447 514 40,000  Level Oakland Oceanic (ODAPS)
05:12PM 40.9593 -139.8346 108° East 455 524 40,000  Level FlightAware Transoceanic
05:13PM 40.9196 -139.6746 108° East 421 484 40,000  Level FlightAware Transoceanic
05:14PM 40.8791 -139.5122 108° East 421 484 40,000  Level FlightAware Transoceanic
05:15PM 40.8383 -139.3501 108° East 421 484 40,000  Level FlightAware Transoceanic
05:16PM 40.7973 -139.1881 109° East 421 484 40,000  Level FlightAware Transoceanic
05:17PM 40.7672 -139.0697 109° East 447 514 40,000  Level FlightAware Transoceanic
05:18PM 40.7277 -138.9153 109° East 447 514 40,000  Level FlightAware Transoceanic
05:19PM 40.6880 -138.7611 109° East 447 514 40,000  Level FlightAware Transoceanic
05:20PM 40.6480 -138.6071 109° East 447 514 40,000  Level FlightAware Transoceanic
05:20PM 40.6500 -138.6000 109° East 456 525 40,000  Level Oakland Oceanic (ODAPS)
05:21PM 40.6079 -138.4532 109° East 447 514 40,000  Level FlightAware Transoceanic
05:22PM 40.5676 -138.2995 109° East 447 514 40,000  Level FlightAware Transoceanic
05:23PM 40.5270 -138.1461 109° East 447 514 40,000  Level FlightAware Transoceanic
05:24PM 40.4863 -137.9928 109° East 447 514 40,000  Level FlightAware Transoceanic
05:25PM 40.4453 -137.8396 109° East 447 514 40,000  Level FlightAware Transoceanic
05:26PM 40.4015 -137.6643 110° East 456 525 40,000  Level FlightAware Transoceanic
05:27PM 40.3594 -137.5090 110° East 456 525 40,000  Level FlightAware Transoceanic
05:28PM 40.3171 -137.3540 110° East 456 525 40,000  Level FlightAware Transoceanic
05:29PM 40.2745 -137.1991 110° East 456 525 40,000  Level FlightAware Transoceanic
05:30PM 40.2317 -137.0444 110° East 456 525 40,000  Level FlightAware Transoceanic
05:31PM 40.1888 -136.8899 110° East 456 525 40,000  Level FlightAware Transoceanic
05:32PM 40.1456 -136.7356 110° East 456 525 40,000  Level FlightAware Transoceanic
05:33PM 40.1022 -136.5815 110° East 456 525 40,000  Level FlightAware Transoceanic
05:34PM 40.0586 -136.4276 110° East 456 525 40,000  Level FlightAware Transoceanic
05:34PM 40.0833 -136.5167 110° East 458 527 40,000  Level Oakland Oceanic (ODAPS)
05:35PM 40.0149 -136.2739 110° East 456 525 40,000  Level FlightAware Transoceanic
05:36PM 39.9709 -136.1204 111° Southeast 456 525 40,000  Level FlightAware Transoceanic
05:37PM 39.9267 -135.9671 111° Southeast 456 525 40,000  Level FlightAware Transoceanic
05:38PM 39.8823 -135.8140 111° Southeast 456 525 40,000  Level FlightAware Transoceanic
05:39PM 39.8377 -135.6611 111° Southeast 456 525 40,000  Level FlightAware Transoceanic
05:40PM 39.8148 -135.5844 111° Southeast 458 527 40,000  Level FlightAware Transoceanic
05:41PM 39.7693 -135.4297 111° Southeast 458 527 40,000  Level FlightAware Transoceanic
05:42PM 39.7236 -135.2753 111° Southeast 458 527 40,000  Level FlightAware Transoceanic
05:43PM 39.6777 -135.1210 111° Southeast 458 527 40,000  Level FlightAware Transoceanic
05:44PM 39.6316 -134.9670 111° Southeast 458 527 40,000  Level FlightAware Transoceanic
05:45PM 39.5853 -134.8131 111° Southeast 458 527 40,000  Level FlightAware Transoceanic
05:46PM 39.5388 -134.6595 111° Southeast 458 527 40,000  Level FlightAware Transoceanic
05:47PM 39.4921 -134.5060 112° Southeast 458 527 40,000  Level FlightAware Transoceanic
05:48PM 39.4452 -134.3528 112° Southeast 458 527 40,000  Level FlightAware Transoceanic
05:48PM 39.4833 -134.5000 111° Southeast 453 521 40,000  Level Oakland Oceanic (ODAPS)
05:49PM 39.3981 -134.1998 112° Southeast 458 527 40,000  Level FlightAware Transoceanic
05:50PM 39.3508 -134.0470 112° Southeast 458 527 40,000  Level FlightAware Transoceanic
05:51PM 39.3032 -133.8944 112° Southeast 458 527 40,000  Level FlightAware Transoceanic
05:52PM 39.2556 -133.7420 112° Southeast 458 527 40,000  Level FlightAware Transoceanic
05:53PM 39.2076 -133.5898 112° Southeast 458 527 40,000  Level FlightAware Transoceanic
05:54PM 39.2006 -133.5851 112° Southeast 453 521 40,000  Level FlightAware Transoceanic
05:55PM 39.1528 -133.4333 112° Southeast 453 521 40,000  Level FlightAware Transoceanic
05:56PM 39.1048 -133.2817 112° Southeast 453 521 40,000  Level FlightAware Transoceanic
05:57PM 39.0566 -133.1304 112° Southeast 453 521 40,000  Level FlightAware Transoceanic
05:58PM 39.0082 -132.9792 112° Southeast 453 521 40,000  Level FlightAware Transoceanic
05:59PM 38.9596 -132.8283 113° Southeast 453 521 40,000  Level FlightAware Transoceanic
06:00PM 38.9108 -132.6776 113° Southeast 453 521 40,000  Level FlightAware Transoceanic
06:01PM 38.8618 -132.5271 113° Southeast 453 521 40,000  Level FlightAware Transoceanic
06:02PM 38.8126 -132.3767 113° Southeast 453 521 40,000  Level FlightAware Transoceanic
06:02PM 38.8500 -132.4833 113° Southeast 458 527 40,000  Level Oakland Oceanic (ODAPS)
06:03PM 38.7632 -132.2266 113° Southeast 453 521 40,000  Level FlightAware Transoceanic
06:04PM 38.7137 -132.0767 113° Southeast 453 521 40,000  Level FlightAware Transoceanic
06:05PM 38.6639 -131.9270 113° Southeast 453 521 40,000  Level FlightAware Transoceanic
06:06PM 38.6140 -131.7775 113° Southeast 453 521 40,000  Level FlightAware Transoceanic
06:07PM 38.5638 -131.6283 113° Southeast 453 521 40,000  Level FlightAware Transoceanic
06:08PM 38.5560 -131.6002 113° Southeast 458 527 40,000  Level FlightAware Transoceanic
06:09PM 38.5064 -131.4537 113° Southeast 458 527 40,000  Level FlightAware Transoceanic
06:10PM 38.4565 -131.3074 114° Southeast 458 527 40,000  Level FlightAware Transoceanic
06:11PM 38.4065 -131.1613 114° Southeast 458 527 40,000  Level FlightAware Transoceanic
06:12PM 38.3563 -131.0155 114° Southeast 458 527 40,000  Level FlightAware Transoceanic
06:13PM 38.3060 -130.8698 114° Southeast 458 527 40,000  Level FlightAware Transoceanic
06:14PM 38.2554 -130.7243 114° Southeast 458 527 40,000  Level FlightAware Transoceanic
06:15PM 38.2047 -130.5791 114° Southeast 458 527 40,000  Level FlightAware Transoceanic
06:15PM 38.1333 -130.3667 115° Southeast 479 551 40,000  Level Oakland Oceanic (ODAPS)
06:16PM 38.1538 -130.4340 114° Southeast 458 527 40,000  Level FlightAware Transoceanic
06:17PM 38.1027 -130.2891 114° Southeast 458 527 40,000  Level FlightAware Transoceanic
06:18PM 38.0514 -130.1445 114° Southeast 458 527 40,000  Level FlightAware Transoceanic
06:18PM 38.0000 -130.0000 101° East 474 545 40,000  Level Oakland Oceanic (ODAPS)
06:19PM 38.0000 -130.0000 101° East 458 527 40,000  Level FlightAware Transoceanic
06:20PM 37.9742 -129.8323 101° East 458 527 40,000  Level FlightAware Transoceanic
06:21PM 37.9482 -129.6647 101° East 458 527 40,000  Level FlightAware Transoceanic
06:22PM 37.9011 -129.3651 101° East 479 551 40,000  Level FlightAware Transoceanic
06:23PM 37.8758 -129.2066 101° East 479 551 40,000  Level FlightAware Transoceanic
06:24PM 37.8503 -129.0483 102° East 474 545 40,000  Level FlightAware Transoceanic
06:25PM 37.8246 -128.8900 102° East 474 545 40,000  Level FlightAware Transoceanic
06:26PM 37.7988 -128.7319 102° East 474 545 40,000  Level FlightAware Transoceanic
06:27PM 37.7726 -128.5739 102° East 474 545 40,000  Level FlightAware Transoceanic
06:28PM 37.7463 -128.4160 102° East 474 545 40,000  Level FlightAware Transoceanic
06:29PM 37.7198 -128.2582 102° East 474 545 40,000  Level FlightAware Transoceanic
06:29PM 37.7000 -128.1000 103° East 486 559 40,000  Level Oakland Oceanic (ODAPS)
06:30PM 37.6931 -128.1005 102° East 474 545 40,000  Level FlightAware Transoceanic
06:31PM 37.6661 -127.9430 102° East 474 545 40,000  Level FlightAware Transoceanic
06:32PM 37.6389 -127.7855 102° East 474 545 40,000  Level FlightAware Transoceanic
06:33PM 37.6116 -127.6282 102° East 474 545 40,000  Level FlightAware Transoceanic
06:33PM 37.5953 -127.4956 93° East 495 570 40,000  Level Oakland Center
06:34PM 37.5840 -127.4709 103° East 474 545 40,000  Level FlightAware Transoceanic
06:34PM 37.5667 -127.3278 102° East 494 568 40,000  Level Oakland Center
06:35PM 37.5562 -127.3139 103° East 474 545 40,000  Level FlightAware Transoceanic
06:36PM 37.5000 -127.0000 93° East 486 559 40,000  Level FlightAware Transoceanic
06:36PM 37.4790 -127.0795 114° Southeast  Level Estimated
06:37PM 37.4928 -126.8342 93° East 486 559 40,000  Level FlightAware Transoceanic
06:37PM 37.4697 -126.7956 114° Southeast 485 558 40,000  Level Oakland Center
06:38PM 37.4853 -126.6684 93° East 486 559 40,000  Level FlightAware Transoceanic
06:38PM 37.4303 -126.6342 107° East 483 556 40,000  Level Oakland Center
06:39PM 37.4776 -126.5026 93° East 486 559 40,000  Level FlightAware Transoceanic
06:39PM 37.3925 -126.4728 106° East 484 557 40,000  Level Oakland Center
06:40PM 37.3550 -126.3119 106° East 482 555 40,000  Level Oakland Center
06:41PM 37.3153 -126.1503 107° East 485 558 40,000  Level Oakland Center
06:42PM 37.2775 -125.9911 107° East 480 552 40,000  Level Oakland Center
06:43PM 37.0629 -125.9288 114° Southeast  Level Estimated
06:43PM 37.2392 -125.8325 107° East 478 550 40,000  Level Oakland Center
06:44PM 37.2011 -125.6742 107° East 476 548 39,700 -420 Descending Oakland Center
06:45PM 37.1639 -125.5208 107° East 468 539 39,200 -600 Descending Oakland Center
06:46PM 37.1186 -125.3353 107° East 465 535 38,500 -660 Descending Oakland Center
06:48PM 37.0574 -125.1297 107° East  Level FlightAware Approximate
06:48PM 37.0400 -125.0231 107° East 472 543 37,300  Level Oakland Center
06:49PM 37.0003 -124.8631 107° East 481 554 37,000 -180 Descending Oakland Center
06:50PM 36.9594 -124.7033 108° East 484 557 37,000  Level Oakland Center
06:51PM 36.9189 -124.5431 108° East 485 558 37,000  Level Oakland Center
06:52PM 36.8775 -124.3803 108° East 491 565 37,000  Level Oakland Center
06:53PM 36.8347 -124.2169 108° East 496 571 37,000  Level Oakland Center
06:54PM 36.7822 -124.0200 108° East 501 577 37,000  Level Oakland Center
07:01PM 36.5140 -123.0060 108° East 492 566 37,000  Level FlightAware
07:01PM 36.4840 -122.8950 109° East 494 568 37,000  Level FlightAware
07:02PM 36.4490 -122.7670 109° East 493 567 37,000  Level FlightAware
07:03PM 36.4110 -122.6280 109° East 488 562 37,000  Level FlightAware
07:04PM 36.3700 -122.4810 109° East 488 562 37,000  Level FlightAware
07:05PM 36.3420 -122.3810 109° East 489 563 37,000  Level FlightAware
07:05PM 36.3070 -122.2540 109° East 492 566 37,000  Level FlightAware
07:06PM 36.2790 -122.1530 109° East 492 566 37,000  Level FlightAware
07:07PM 36.2440 -122.0290 109° East 491 565 37,000  Level FlightAware
07:08PM 36.2150 -121.9240 109° East 490 564 37,000  Level FlightAware
07:08PM 36.1810 -121.8050 109° East 489 563 37,000  Level FlightAware
07:09PM 36.1510 -121.6980 109° East 486 559 37,000  Level FlightAware
07:10PM 36.1240 -121.6030 109° East 486 559 37,000  Level FlightAware
07:10PM 36.0970 -121.5110 110° East 490 564 37,000  Level FlightAware
07:11PM 36.0560 -121.3670 109° East 493 567 37,000  Level FlightAware
07:12PM 36.0230 -121.2510 109° East 491 565 37,000  Level FlightAware
07:12PM 35.9930 -121.1480 110° East 486 559 37,000  Level FlightAware
07:13PM 35.9630 -121.0430 109° East 490 564 37,000  Level FlightAware
07:14PM 35.9370 -120.9540 110° East 491 565 37,000  Level FlightAware
07:15PM 35.8970 -120.8170 110° East 484 557 37,000  Level FlightAware
07:15PM 35.8660 -120.7140 110° East 484 557 37,000  Level FlightAware
07:16PM 35.8330 -120.6000 110° East 488 562 37,000  Level FlightAware
07:17PM 35.8010 -120.4930 110° East 490 564 37,000  Level FlightAware
07:17PM 35.7650 -120.3730 110° East 492 566 37,000  Level FlightAware
07:18PM 35.7360 -120.2740 110° East 496 571 37,000  Level FlightAware
07:19PM 35.7000 -120.1630 112° Southeast 494 568 37,000 -180 Level FlightAware
07:19PM 35.6500 -120.0540 119° Southeast 486 559 36,800 -600 Descending FlightAware
07:20PM 35.6090 -119.9880 127° Southeast 494 568 36,300 -1,080 Descending FlightAware
07:21PM 35.5460 -119.9050 133° Southeast 491 565 35,600 -1,020 Descending FlightAware
07:21PM 35.4790 -119.8380 141° Southeast 481 554 35,000 -1,380 Descending FlightAware
07:22PM 35.3950 -119.7630 144° Southeast 476 548 33,700 -1,920 Descending FlightAware
07:23PM 35.3250 -119.7010 144° Southeast 463 533 32,300 -2,100 Descending FlightAware
07:23PM 35.2550 -119.6410 145° Southeast 448 516 30,900 -2,100 Descending FlightAware
07:24PM 35.1830 -119.5790 145° Southeast 433 498 29,400 -1,980 Descending FlightAware
07:25PM 35.1190 -119.5240 145° Southeast 420 483 28,100 -1,980 Descending FlightAware
07:25PM 35.0710 -119.4840 146° Southeast 416 479 27,100 -1,920 Descending FlightAware
07:26PM 35.0140 -119.4350 145° Southeast 409 471 25,900 -1,260 Descending FlightAware
07:27PM 34.9250 -119.3590 145° Southeast 401 461 25,000 -540 Descending FlightAware
07:28PM 34.8730 -119.3150 145° Southeast 401 461 25,000 -2,700 Level FlightAware
07:28PM 34.8010 -119.2540 145° Southeast 372 428 21,400 -3,540 Descending FlightAware
07:29PM 34.7380 -119.2010 145° Southeast 364 419 20,000 -1,560 Descending FlightAware
07:30PM 34.6680 -119.1420 145° Southeast 367 422 18,800 -840 Descending FlightAware
07:31PM 34.6220 -119.1030 145° Southeast 367 422 18,800  Level FlightAware
07:31PM 34.5630 -119.0530 145° Southeast 367 422 18,800  Level FlightAware
07:32PM 34.5160 -119.0130 145° Southeast 367 422 18,800  Level FlightAware
07:33PM 34.4680 -118.9720 145° Southeast 367 422 18,800  Level FlightAware
07:33PM 34.4210 -118.9320 145° Southeast 367 422 18,800 -2,580 Level FlightAware
07:37PM 34.1030 -118.8440 167° South 251 289 7,800 -2,760 Descending FlightAware
07:38PM 34.0440 -118.8350 173° South 241 277 6,400 -1,620 Descending FlightAware
07:38PM 34.0200 -118.8300 170° South 238 274 5,800 -720 Descending FlightAware
07:39PM 33.9940 -118.8210 164° South 238 274 5,800 -1,320 Level FlightAware
07:40PM 33.9360 -118.7810 150° Southeast 230 265 4,000 -1,140 Descending FlightAware
07:41PM 33.9240 -118.6760 98° East 180 207 3,000 -540 Descending FlightAware
07:42PM 33.9270 -118.6480 83° East 182 209 3,000  Level FlightAware
07:42PM 33.9280 -118.6370 84° East 182 209 3,000  Level FlightAware
07:43PM 33.9330 -118.5930 82° East 180 207 3,000 -600 Level FlightAware
07:44PM 33.9430 -118.4960 83° East 154 177 1,500 -960 Descending FlightAware
07:45PM 33.9500 -118.4500 83° East 139 160 500 -900 Descending Southern California TRACON
07:46PM 33.9478 -118.4450 118° Southeast 137 158 400 -420 Descending Los Angeles Center
07:48PM 33.9425 -118.4081 104° East  Level Estimated